createdAt,value
2023-03-21T00:00:44.274Z,99103.34
2023-03-21T00:03:11.398Z,99115.59
2023-03-21T00:05:42.498Z,99099.75
2023-03-21T00:08:09.549Z,99095.44
2023-03-21T00:10:42.906Z,99095.22
2023-03-21T00:13:13.347Z,99093.03
2023-03-21T00:16:03.480Z,99090.59
2023-03-21T00:18:37.115Z,99098.06
2023-03-21T00:21:37.582Z,99092.09
2023-03-21T00:23:52.689Z,99091.13
2023-03-21T00:26:19.261Z,99087.84
2023-03-21T00:28:45.881Z,99082.25
2023-03-21T00:31:12.636Z,99086.66
2023-03-21T00:33:39.552Z,99089.97
2023-03-21T00:36:07.631Z,99089.44
2023-03-21T00:38:35.321Z,99091.53
2023-03-21T00:41:18.805Z,99086.66
2023-03-21T00:43:47.903Z,99091.66
2023-03-21T00:46:14.619Z,99077.38
2023-03-21T00:48:41.496Z,99081.94
2023-03-21T00:51:26.573Z,99075.69
2023-03-21T00:53:58.340Z,99070.41
2023-03-21T00:56:25.118Z,99066.38
2023-03-21T00:58:51.747Z,99071.25
2023-03-21T01:01:19.079Z,99064.94
2023-03-21T01:03:48.167Z,99066.22
2023-03-21T01:06:19.530Z,99061.53
2023-03-21T01:08:52.655Z,99063.97
2023-03-21T01:11:25.028Z,99069.97
2023-03-21T01:13:59.588Z,99059.41
2023-03-21T01:16:31.247Z,99056.41
2023-03-21T01:18:59.644Z,99055.84
2023-03-21T01:21:26.903Z,99061.38
2023-03-21T01:23:53.620Z,99050.97
2023-03-21T01:26:23.671Z,99053.31
2023-03-21T01:28:50.497Z,99054.78
2023-03-21T01:31:18.433Z,99050.94
2023-03-21T01:33:45.571Z,99051.81
2023-03-21T01:36:21.105Z,99059.94
2023-03-21T01:38:49.442Z,99052.47
2023-03-21T01:41:42.495Z,99050.38
2023-03-21T01:44:18.685Z,99050.38
2023-03-21T01:47:03.619Z,99050.28
2023-03-21T01:49:41.005Z,99048.34
2023-03-21T01:52:18.964Z,99046.38
2023-03-21T01:54:54.711Z,99044.75
2023-03-21T01:57:40.363Z,99039.72
2023-03-21T02:00:15.213Z,99032.00
2023-03-21T02:02:52.543Z,99037.78
2023-03-21T02:05:27.411Z,99045.50
2023-03-21T02:07:54.089Z,99030.63
2023-03-21T02:10:21.291Z,99035.34
2023-03-21T02:12:48.276Z,99031.56
2023-03-21T02:15:16.153Z,99022.81
2023-03-21T02:18:25.251Z,99026.38
2023-03-21T02:21:01.085Z,99025.44
2023-03-21T02:24:03.337Z,99022.09
2023-03-21T02:27:03.457Z,99021.44
2023-03-21T02:29:58.370Z,99022.38
2023-03-21T02:32:37.666Z,99015.13
2023-03-21T02:35:08.073Z,99018.38
2023-03-21T02:37:43.008Z,99009.81
2023-03-21T02:40:35.013Z,99014.84
2023-03-21T02:43:23.358Z,99008.16
2023-03-21T02:45:57.079Z,99002.19
2023-03-21T02:48:44.503Z,98997.75
2023-03-21T02:51:21.173Z,99001.34
2023-03-21T02:54:16.184Z,98999.16
2023-03-21T02:56:43.133Z,99001.34
2023-03-21T02:59:10.762Z,99001.59
2023-03-21T03:01:37.840Z,98996.91
2023-03-21T03:04:04.856Z,98991.63
2023-03-21T03:06:45.401Z,98994.84
2023-03-21T03:09:39.917Z,98989.22
2023-03-21T03:12:41.752Z,98983.22
2023-03-21T03:15:11.695Z,98995.25
2023-03-21T03:17:53.648Z,98995.84
2023-03-21T03:20:30.006Z,98985.75
2023-03-21T03:22:59.412Z,98996.19
2023-03-21T03:25:41.588Z,98992.72
2023-03-21T03:28:11.643Z,98992.63
2023-03-21T03:30:46.522Z,98994.16
2023-03-21T03:33:17.978Z,98991.03
2023-03-21T03:35:53.057Z,98981.06
2023-03-21T03:38:31.120Z,98983.72
2023-03-21T03:41:12.839Z,98981.91
2023-03-21T03:44:01.404Z,98969.66
2023-03-21T03:46:33.651Z,98974.28
2023-03-21T03:49:15.772Z,98975.25
2023-03-21T03:51:56.042Z,98973.09
2023-03-21T03:54:30.038Z,98980.88
2023-03-21T03:56:57.600Z,98977.84
2023-03-21T03:59:25.270Z,98975.19
2023-03-21T04:01:52.103Z,98981.06
2023-03-21T04:04:18.878Z,98977.38
2023-03-21T04:06:51.573Z,98970.91
2023-03-21T04:09:22.165Z,98971.75
2023-03-21T04:11:51.776Z,98975.75
2023-03-21T04:14:18.491Z,98972.16
2023-03-21T04:16:45.219Z,98975.88
2023-03-21T04:19:12.037Z,98976.84
2023-03-21T04:21:39.360Z,98975.13
2023-03-21T04:24:07.504Z,98972.59
2023-03-21T04:26:35.994Z,98973.44
2023-03-21T04:29:03.532Z,98972.84
2023-03-21T04:31:31.504Z,98971.16
2023-03-21T04:33:59.608Z,98977.69
2023-03-21T04:36:30.613Z,98976.28
2023-03-21T04:39:01.043Z,98971.72
2023-03-21T04:41:31.188Z,98970.53
2023-03-21T04:43:57.890Z,98975.09
2023-03-21T04:46:24.736Z,98975.63
2023-03-21T04:48:51.412Z,98974.69
2023-03-21T04:51:18.080Z,98979.72
2023-03-21T04:53:46.029Z,98977.94
2023-03-21T04:56:13.065Z,98976.59
2023-03-21T04:58:40.730Z,98976.03
2023-03-21T05:01:08.194Z,98969.25
2023-03-21T05:03:40.061Z,98969.25
2023-03-21T05:06:08.623Z,98969.13
2023-03-21T05:08:38.652Z,98977.44
2023-03-21T05:11:05.646Z,98970.47
2023-03-21T05:13:32.244Z,98974.81
2023-03-21T05:15:58.928Z,98968.56
2023-03-21T05:18:26.211Z,98966.88
2023-03-21T05:20:54.263Z,98966.97
2023-03-21T05:23:24.713Z,98966.44
2023-03-21T05:25:51.610Z,98976.78
2023-03-21T05:28:21.236Z,98973.50
2023-03-21T05:30:47.927Z,98975.47
2023-03-21T05:33:14.767Z,98971.81
2023-03-21T05:35:41.540Z,98971.38
2023-03-21T05:38:08.286Z,98968.41
2023-03-21T05:40:34.958Z,98962.03
2023-03-21T05:43:01.576Z,98962.28
2023-03-21T05:45:28.251Z,98971.66
2023-03-21T05:47:54.997Z,98967.31
2023-03-21T05:50:21.713Z,98973.84
2023-03-21T05:52:48.353Z,98971.59
2023-03-21T05:55:14.969Z,98972.66
2023-03-21T05:57:41.821Z,98973.50
2023-03-21T06:00:09.689Z,98975.31
2023-03-21T06:02:36.484Z,98969.81
2023-03-21T06:05:03.702Z,98962.00
2023-03-21T06:07:30.353Z,98972.72
2023-03-21T06:09:57.068Z,98962.38
2023-03-21T06:12:23.808Z,98965.53
2023-03-21T06:14:50.445Z,98961.47
2023-03-21T06:17:17.088Z,98958.38
2023-03-21T06:19:43.729Z,98962.50
2023-03-21T06:22:10.525Z,98958.88
2023-03-21T06:24:37.255Z,98965.63
2023-03-21T06:27:04.168Z,98961.00
2023-03-21T06:29:31.296Z,98955.28
2023-03-21T06:31:58.046Z,98952.53
2023-03-21T06:34:24.754Z,98955.28
2023-03-21T06:36:52.253Z,98950.47
2023-03-21T06:39:19.041Z,98944.53
2023-03-21T06:41:45.801Z,98949.44
2023-03-21T06:44:12.578Z,98956.09
2023-03-21T06:46:39.270Z,98952.88
2023-03-21T06:49:05.937Z,98963.34
2023-03-21T06:51:33.034Z,98962.25
2023-03-21T06:53:59.711Z,98963.34
2023-03-21T06:56:26.473Z,98956.84
2023-03-21T06:58:53.168Z,98961.66
2023-03-21T07:01:20.089Z,98962.97
2023-03-21T07:03:47.375Z,98949.78
2023-03-21T07:06:14.406Z,98951.09
2023-03-21T07:08:41.669Z,98958.31
2023-03-21T07:11:09.674Z,98963.63
2023-03-21T07:13:36.276Z,98961.94
2023-03-21T07:16:03.069Z,98962.19
2023-03-21T07:18:31.051Z,98958.59
2023-03-21T07:20:58.133Z,98964.59
2023-03-21T07:23:27.193Z,98959.69
2023-03-21T07:25:54.573Z,98966.78
2023-03-21T07:28:22.143Z,98961.69
2023-03-21T07:30:57.386Z,98957.81
2023-03-21T07:33:24.945Z,98963.59
2023-03-21T07:35:53.299Z,98953.16
2023-03-21T07:38:20.915Z,98947.22
2023-03-21T07:40:48.497Z,98949.56
2023-03-21T07:43:16.279Z,98955.78
2023-03-21T07:45:44.097Z,98947.19
2023-03-21T07:48:13.092Z,98948.31
2023-03-21T07:50:40.642Z,98951.16
2023-03-21T07:53:07.878Z,98953.16
2023-03-21T07:55:37.731Z,98943.59
2023-03-21T07:58:04.980Z,98945.75
2023-03-21T08:00:31.968Z,98948.13
2023-03-21T08:02:59.707Z,98961.31
2023-03-21T08:05:35.685Z,98948.38
2023-03-21T08:08:03.121Z,98949.84
2023-03-21T08:10:29.845Z,98951.00
2023-03-21T08:12:56.571Z,98931.78
2023-03-21T08:15:23.346Z,98935.13
2023-03-21T08:17:49.953Z,98938.44
2023-03-21T08:20:22.125Z,98936.81
2023-03-21T08:22:49.898Z,98933.19
2023-03-21T08:25:18.517Z,98946.13
2023-03-21T08:27:46.873Z,98934.59
2023-03-21T08:30:16.635Z,98932.91
2023-03-21T08:32:43.717Z,98928.59
2023-03-21T08:35:13.041Z,98932.09
2023-03-21T08:37:42.262Z,98944.63
2023-03-21T08:40:13.334Z,98935.69
2023-03-21T08:42:44.428Z,98919.25
2023-03-21T08:45:12.943Z,98930.72
2023-03-21T08:47:40.253Z,98925.72
2023-03-21T08:50:08.582Z,98934.84
2023-03-21T08:52:35.682Z,98927.16
2023-03-21T08:55:02.769Z,98919.94
2023-03-21T08:57:30.418Z,98935.28
2023-03-21T08:59:57.116Z,98923.91
2023-03-21T09:02:24.215Z,98934.16
2023-03-21T09:04:53.201Z,98929.81
2023-03-21T09:07:20.249Z,98934.06
2023-03-21T09:09:53.463Z,98924.03
2023-03-21T09:12:20.492Z,98928.81
2023-03-21T09:14:47.235Z,98932.03
2023-03-21T09:17:14.071Z,98926.16
2023-03-21T09:19:40.990Z,98923.66
2023-03-21T09:22:11.195Z,98932.03
2023-03-21T09:24:38.169Z,98928.72
2023-03-21T09:27:04.993Z,98930.56
2023-03-21T09:29:32.447Z,98929.34
2023-03-21T09:31:59.794Z,98924.97
2023-03-21T09:34:26.561Z,98920.63
2023-03-21T09:36:56.601Z,98922.44
2023-03-21T09:39:24.229Z,98917.97
2023-03-21T09:42:04.476Z,98923.44
2023-03-21T09:44:37.815Z,98916.25
2023-03-21T09:47:20.761Z,98914.03
2023-03-21T09:50:14.194Z,98917.13
2023-03-21T09:53:16.631Z,98909.59
2023-03-21T09:55:44.576Z,98908.47
2023-03-21T09:58:32.358Z,98905.41
2023-03-21T10:01:44.016Z,98904.41
2023-03-21T10:04:16.698Z,98909.31
2023-03-21T10:06:45.878Z,98906.50
2023-03-21T10:09:22.971Z,98898.09
2023-03-21T10:11:54.388Z,98897.50
2023-03-21T10:14:25.616Z,98898.88
2023-03-21T10:16:58.016Z,98890.72
2023-03-21T10:19:25.258Z,98880.31
2023-03-21T10:22:00.657Z,98878.25
2023-03-21T10:24:29.890Z,98866.28
2023-03-21T10:26:57.549Z,98880.00
2023-03-21T10:29:28.760Z,98876.28
2023-03-21T10:31:56.004Z,98875.94
2023-03-21T10:34:46.355Z,98877.88
2023-03-21T10:37:14.454Z,98868.34
2023-03-21T10:39:47.447Z,98860.22
2023-03-21T10:42:26.702Z,98872.34
2023-03-21T10:44:56.671Z,98864.81
2023-03-21T10:47:28.830Z,98859.84
2023-03-21T10:50:11.479Z,98866.31
2023-03-21T10:52:51.761Z,98860.25
2023-03-21T10:55:25.902Z,98851.41
2023-03-21T10:57:57.647Z,98859.19
2023-03-21T11:00:29.616Z,98856.44
2023-03-21T11:02:58.077Z,98860.03
2023-03-21T11:05:35.686Z,98845.81
2023-03-21T11:08:18.239Z,98845.75
2023-03-21T11:11:04.500Z,98837.84
2023-03-21T11:13:40.356Z,98841.63
2023-03-21T11:16:41.496Z,98848.53
2023-03-21T11:19:14.424Z,98847.06
2023-03-21T11:21:41.332Z,98845.81
2023-03-21T11:24:14.892Z,98844.31
2023-03-21T11:26:44.524Z,98843.16
2023-03-21T11:29:45.666Z,98830.75
2023-03-21T11:32:20.928Z,98831.09
2023-03-21T11:34:51.019Z,98832.66
2023-03-21T11:37:22.178Z,98827.69
2023-03-21T11:39:56.044Z,98834.09
2023-03-21T11:42:40.709Z,98834.53
2023-03-21T11:45:28.438Z,98830.25
2023-03-21T11:47:58.035Z,98825.09
2023-03-21T11:50:40.067Z,98819.50
2023-03-21T11:53:27.225Z,98816.91
2023-03-21T11:56:04.762Z,98818.19
2023-03-21T11:58:58.853Z,98814.59
2023-03-21T12:01:35.109Z,98807.56
2023-03-21T12:04:11.993Z,98806.19
2023-03-21T12:06:52.779Z,98809.69
2023-03-21T12:09:31.560Z,98808.31
2023-03-21T12:12:38.354Z,98806.06
2023-03-21T12:15:06.268Z,98800.28
2023-03-21T12:17:57.062Z,98790.16
2023-03-21T12:20:30.852Z,98795.09
2023-03-21T12:23:24.492Z,98793.31
2023-03-21T12:26:00.993Z,98794.66
2023-03-21T12:28:40.094Z,98789.31
2023-03-21T12:31:18.058Z,98784.22
2023-03-21T12:34:12.526Z,98782.59
2023-03-21T12:37:09.247Z,98793.75
2023-03-21T12:39:39.001Z,98793.72
2023-03-21T12:42:31.852Z,98788.81
2023-03-21T12:45:16.026Z,98788.59
2023-03-21T12:47:46.540Z,98787.53
2023-03-21T12:50:24.744Z,98794.63
2023-03-21T12:52:56.364Z,98797.13
2023-03-21T12:55:34.515Z,98799.69
2023-03-21T12:58:11.455Z,98791.75
2023-03-21T13:00:43.682Z,98788.81
2023-03-21T13:03:39.813Z,98779.00
2023-03-21T13:06:10.318Z,98796.53
2023-03-21T13:08:46.351Z,98780.69
2023-03-21T13:11:21.275Z,98796.28
2023-03-21T13:14:24.253Z,98793.97
2023-03-21T13:17:04.383Z,98778.81
2023-03-21T13:20:07.447Z,98782.84
2023-03-21T13:22:34.219Z,98785.53
2023-03-21T13:25:20.512Z,98781.47
2023-03-21T13:28:03.285Z,98788.44
2023-03-21T13:30:32.459Z,98770.31
2023-03-21T13:33:07.619Z,98767.53
2023-03-21T13:35:41.722Z,98770.13
2023-03-21T13:38:24.634Z,98776.50
2023-03-21T13:41:17.746Z,98768.41
2023-03-21T13:43:54.807Z,98763.91
2023-03-21T13:46:34.146Z,98763.44
2023-03-21T13:49:10.254Z,98766.78
2023-03-21T13:51:36.877Z,98766.63
2023-03-21T13:54:16.404Z,98759.16
2023-03-21T13:56:46.502Z,98761.06
2023-03-21T13:59:19.296Z,98760.41
2023-03-21T14:01:58.244Z,98758.66
2023-03-21T14:04:36.926Z,98752.69
2023-03-21T14:07:26.502Z,98746.53
2023-03-21T14:09:57.532Z,98748.03
2023-03-21T14:12:27.124Z,98749.38
2023-03-21T14:15:06.920Z,98743.78
2023-03-21T14:17:37.060Z,98741.66
2023-03-21T14:20:14.690Z,98743.44
2023-03-21T14:22:41.457Z,98740.97
2023-03-21T14:25:15.994Z,98734.16
2023-03-21T14:27:45.998Z,98744.00
2023-03-21T14:30:22.155Z,98742.41
2023-03-21T14:32:48.951Z,98738.06
2023-03-21T14:35:15.678Z,98738.69
2023-03-21T14:37:46.063Z,98738.69
2023-03-21T14:40:27.429Z,98741.22
2023-03-21T14:42:55.183Z,98739.44
2023-03-21T14:45:21.732Z,98739.56
2023-03-21T14:48:05.870Z,98737.06
2023-03-21T14:50:55.559Z,98744.00
2023-03-21T14:53:26.547Z,98733.53
2023-03-21T14:56:00.706Z,98732.00
2023-03-21T14:58:28.916Z,98740.09
2023-03-21T15:01:01.286Z,98743.16
2023-03-21T15:03:28.223Z,98735.66
2023-03-21T15:05:55.970Z,98730.31
2023-03-21T15:08:28.359Z,98729.63
2023-03-21T15:11:08.620Z,98734.78
2023-03-21T15:13:46.857Z,98735.34
2023-03-21T15:16:16.548Z,98728.91
2023-03-21T15:18:45.911Z,98728.91
2023-03-21T15:21:16.594Z,98725.44
2023-03-21T15:23:46.988Z,98736.72
2023-03-21T15:26:19.475Z,98725.53
2023-03-21T15:28:48.706Z,98731.97
2023-03-21T15:31:24.383Z,98721.66
2023-03-21T15:33:53.838Z,98724.31
2023-03-21T15:36:33.649Z,98720.91
2023-03-21T15:39:06.632Z,98723.84
2023-03-21T15:41:33.887Z,98724.56
2023-03-21T15:44:14.270Z,98713.91
2023-03-21T15:46:47.776Z,98729.88
2023-03-21T15:49:17.417Z,98723.78
2023-03-21T15:51:55.654Z,98725.34
2023-03-21T15:54:41.447Z,98725.06
2023-03-21T15:57:23.955Z,98721.44
2023-03-21T15:59:54.810Z,98716.44
2023-03-21T16:02:26.290Z,98722.53
2023-03-21T16:05:20.238Z,98729.16
2023-03-21T16:07:47.516Z,98726.66
2023-03-21T16:10:30.153Z,98724.28
2023-03-21T16:12:56.867Z,98720.41
2023-03-21T16:15:25.832Z,98722.53
2023-03-21T16:17:56.533Z,98725.56
2023-03-21T16:20:25.953Z,98719.78
2023-03-21T16:22:52.756Z,98723.53
2023-03-21T16:25:19.983Z,98725.78
2023-03-21T16:27:47.554Z,98725.06
2023-03-21T16:30:16.403Z,98721.59
2023-03-21T16:32:42.997Z,98727.88
2023-03-21T16:35:11.245Z,98731.63
2023-03-21T16:37:38.125Z,98726.31
2023-03-21T16:40:26.040Z,98729.16
2023-03-21T16:42:52.639Z,98718.53
2023-03-21T16:45:19.399Z,98725.22
2023-03-21T16:47:47.353Z,98728.09
2023-03-21T16:50:41.626Z,98722.72
2023-03-21T16:53:09.311Z,98725.88
2023-03-21T16:55:37.207Z,98725.72
2023-03-21T16:58:05.112Z,98720.84
2023-03-21T17:00:32.561Z,98723.94
2023-03-21T17:03:08.935Z,98721.53
2023-03-21T17:05:35.799Z,98731.31
2023-03-21T17:08:02.900Z,98733.13
2023-03-21T17:10:31.598Z,98729.03
2023-03-21T17:12:58.272Z,98728.19
2023-03-21T17:15:25.022Z,98741.69
2023-03-21T17:17:52.122Z,98731.16
2023-03-21T17:20:30.062Z,98733.66
2023-03-21T17:22:56.767Z,98739.78
2023-03-21T17:25:23.980Z,98736.94
2023-03-21T17:27:53.086Z,98738.13
2023-03-21T17:30:31.530Z,98730.66
2023-03-21T17:32:58.845Z,98728.00
2023-03-21T17:35:26.472Z,98732.06
2023-03-21T17:37:54.452Z,98728.19
2023-03-21T17:40:30.470Z,98736.19
2023-03-21T17:42:58.501Z,98739.78
2023-03-21T17:45:25.536Z,98734.47
2023-03-21T17:47:52.634Z,98734.50
2023-03-21T17:50:20.811Z,98729.22
2023-03-21T17:52:50.573Z,98722.50
2023-03-21T17:55:19.618Z,98735.72
2023-03-21T17:57:46.762Z,98736.00
2023-03-21T18:00:23.238Z,98734.75
2023-03-21T18:02:50.608Z,98734.53
2023-03-21T18:05:18.173Z,98726.88
2023-03-21T18:08:08.954Z,98719.91
2023-03-21T18:10:32.510Z,98723.28
2023-03-21T18:13:00.287Z,98728.94
2023-03-21T18:15:30.161Z,98726.63
2023-03-21T18:17:57.766Z,98720.28
2023-03-21T18:20:44.540Z,98726.19
2023-03-21T18:23:14.146Z,98720.41
2023-03-21T18:25:41.813Z,98715.59
2023-03-21T18:28:11.948Z,98708.59
2023-03-21T18:31:00.440Z,98691.09
2023-03-21T18:33:27.440Z,98688.72
2023-03-21T18:35:59.072Z,98694.13
2023-03-21T18:38:27.582Z,98688.47
2023-03-21T18:40:55.690Z,98700.09
2023-03-21T18:46:09.505Z,98702.66
2023-03-21T18:48:36.621Z,98705.66
2023-03-21T18:51:03.844Z,98700.47
2023-03-21T18:53:30.523Z,98703.13
2023-03-21T18:55:57.508Z,98707.22
2023-03-21T18:58:25.533Z,98709.84
2023-03-21T19:00:53.764Z,98713.00
2023-03-21T19:03:35.252Z,98711.16
2023-03-21T19:06:04.080Z,98711.03
2023-03-21T19:08:31.375Z,98715.75
2023-03-21T19:11:00.192Z,98717.53
2023-03-21T19:13:30.193Z,98718.38
2023-03-21T19:15:57.154Z,98716.34
2023-03-21T19:18:49.579Z,98725.72
2023-03-21T19:21:10.930Z,98716.25
2023-03-21T19:24:07.919Z,98720.19
2023-03-21T19:26:28.583Z,98704.56
2023-03-21T19:28:56.464Z,98713.94
2023-03-21T19:31:24.462Z,98707.72
2023-03-21T19:33:51.635Z,98702.41
2023-03-21T19:36:22.548Z,98694.72
2023-03-21T19:38:50.731Z,98701.19
2023-03-21T19:41:18.591Z,98701.69
2023-03-21T19:43:54.085Z,98710.09
2023-03-21T19:46:25.167Z,98705.78
2023-03-21T19:48:56.404Z,98698.34
2023-03-21T19:51:28.788Z,98707.19
2023-03-21T19:53:56.692Z,98695.22
2023-03-21T19:56:26.793Z,98702.66
2023-03-21T19:58:55.792Z,98700.97
2023-03-21T20:01:24.147Z,98708.66
2023-03-21T20:03:51.609Z,98698.22
2023-03-21T20:06:18.689Z,98710.09
2023-03-21T20:11:33.502Z,98708.31
2023-03-21T20:14:03.114Z,98700.50
2023-03-21T20:16:35.018Z,98700.50
2023-03-21T20:19:04.709Z,98699.66
2023-03-21T20:21:41.128Z,98698.59
2023-03-21T20:24:13.184Z,98704.81
2023-03-21T20:26:44.241Z,98699.78
2023-03-21T20:30:03.914Z,98699.06
2023-03-21T20:31:57.738Z,98706.63
2023-03-21T20:34:24.601Z,98712.63
2023-03-21T20:36:51.666Z,98719.50
2023-03-21T20:39:18.409Z,98711.06
2023-03-21T20:41:45.214Z,98707.47
2023-03-21T20:44:42.225Z,98714.44
2023-03-21T20:47:00.623Z,98714.44
2023-03-21T20:49:28.374Z,98704.44
2023-03-21T20:54:43.547Z,98697.50
2023-03-21T20:57:10.259Z,98701.94
2023-03-21T20:59:36.936Z,98703.63
2023-03-21T21:02:03.825Z,98699.31
2023-03-21T21:04:52.900Z,98707.22
2023-03-21T21:07:20.387Z,98701.94
2023-03-21T21:09:48.101Z,98692.09
2023-03-21T21:12:16.495Z,98679.38
2023-03-21T21:14:44.169Z,98681.53
2023-03-21T21:17:28.365Z,98680.56
2023-03-21T21:19:58.162Z,98688.00
2023-03-21T21:22:24.949Z,98695.69
2023-03-21T21:24:51.954Z,98698.59
2023-03-21T21:27:18.697Z,98700.38
2023-03-21T21:29:47.764Z,98705.41
2023-03-21T21:32:17.057Z,98702.91
2023-03-21T21:34:43.774Z,98700.97
2023-03-21T21:37:10.712Z,98704.94
2023-03-21T21:39:38.711Z,98704.94
2023-03-21T21:42:05.820Z,98699.44
2023-03-21T21:44:32.504Z,98694.38
2023-03-21T21:46:59.797Z,98689.94
2023-03-21T21:49:27.009Z,98689.47
2023-03-21T21:51:53.701Z,98677.97
2023-03-21T21:54:20.391Z,98679.59
2023-03-21T21:56:54.265Z,98677.47
2023-03-21T21:59:22.236Z,98678.31
2023-03-21T22:01:51.501Z,98684.78
2023-03-21T22:04:24.865Z,98682.25
2023-03-21T22:06:52.094Z,98688.75
2023-03-21T22:09:18.990Z,98681.78
2023-03-21T22:11:45.994Z,98677.81
2023-03-21T22:14:12.861Z,98687.53
2023-03-21T22:16:39.670Z,98687.53
2023-03-21T22:19:06.407Z,98682.03
2023-03-21T22:21:33.120Z,98680.09
2023-03-21T22:23:59.785Z,98680.59
2023-03-21T22:26:26.600Z,98685.16
2023-03-21T22:28:53.278Z,98686.09
2023-03-21T22:31:20.073Z,98676.00
2023-03-21T22:33:48.707Z,98673.63
2023-03-21T22:36:15.556Z,98668.94
2023-03-21T22:38:43.965Z,98671.22
2023-03-21T22:41:10.939Z,98666.91
2023-03-21T22:43:37.653Z,98670.75
2023-03-21T22:46:05.541Z,98663.78
2023-03-21T22:48:32.759Z,98659.84
2023-03-21T22:51:00.185Z,98653.34
2023-03-21T22:53:27.033Z,98641.81
2023-03-21T22:55:54.149Z,98647.09
2023-03-21T22:58:21.066Z,98653.94
2023-03-21T23:00:48.058Z,98639.78
2023-03-21T23:03:16.827Z,98650.59
2023-03-21T23:05:44.817Z,98656.34
2023-03-21T23:08:11.942Z,98663.53
2023-03-21T23:10:40.666Z,98650.81
2023-03-21T23:13:07.682Z,98659.47
2023-03-21T23:15:34.545Z,98654.19
2023-03-21T23:18:01.270Z,98654.88
2023-03-21T23:20:28.034Z,98656.81
2023-03-21T23:22:55.439Z,98651.06
2023-03-21T23:25:22.220Z,98659.47
2023-03-21T23:27:48.969Z,98657.53
2023-03-21T23:30:15.789Z,98662.22
2023-03-21T23:32:42.608Z,98656.94
2023-03-21T23:35:10.329Z,98653.72
2023-03-21T23:37:37.540Z,98655.38
2023-03-21T23:40:08.903Z,98644.81
2023-03-21T23:42:36.378Z,98653.69
2023-03-21T23:45:03.127Z,98642.66
2023-03-21T23:47:31.163Z,98638.34
2023-03-21T23:49:57.977Z,98643.88
2023-03-21T23:52:24.656Z,98653.59
2023-03-21T23:54:51.368Z,98650.09
2023-03-21T23:57:18.146Z,98646.13
2023-03-21T23:59:46.902Z,98647.47
